Time;durP1;ratioP1;P1;durP2;ratioP2;P2;SDS_P1;SDS_P2;PMS_P1;PMS_P2;Temp;Humidity;BMP_temperature;BMP_pressure;BME280_temperature;BME280_humidity;BME280_pressure;Samples;Min_cycle;Max_cycle;Signal;HPM_P1;HPM_P2
2023/08/27 00:01:54;;;;;;;7.70;4.40;;;;;;;26.13;50.55;99422.75;5051297;28;20025;-42
2023/08/27 00:04:19;;;;;;;5.50;4.40;;;;;;;26.33;50.14;99426.84;5051114;28;20035;-44
2023/08/27 00:06:44;;;;;;;8.27;4.57;;;;;;;26.07;50.85;99413.13;5050883;28;20020;-42
2023/08/27 00:09:10;;;;;;;7.00;4.20;;;;;;;26.03;51.08;99414.88;5050976;28;20032;-42
2023/08/27 00:11:35;;;;;;;7.75;4.63;;;;;;;26.00;51.30;99410.03;5051103;28;20029;-41
2023/08/27 00:14:02;;;;;;;6.70;4.55;;;;;;;26.04;51.41;99418.41;5050977;28;20028;-41
2023/08/27 00:16:28;;;;;;;5.93;4.63;;;;;;;25.99;51.58;99408.44;5050879;28;20171;-43
2023/08/27 00:18:53;;;;;;;5.80;4.50;;;;;;;26.15;51.28;99408.81;5050772;28;20112;-43
2023/08/27 00:21:19;;;;;;;6.85;4.22;;;;;;;25.91;51.96;99406.44;5050745;28;20017;-44
2023/08/27 00:23:44;;;;;;;6.03;4.20;;;;;;;25.65;52.01;99409.06;5050728;28;20086;-44
2023/08/27 00:26:10;;;;;;;6.95;4.22;;;;;;;25.95;51.55;99407.47;5050768;28;20028;-43
2023/08/27 00:28:35;;;;;;;5.45;4.35;;;;;;;25.75;52.12;99408.78;5050795;28;20025;-43
2023/08/27 00:31:03;;;;;;;5.57;4.57;;;;;;;25.90;51.92;99405.66;5050658;28;20025;-41
2023/08/27 00:33:29;;;;;;;6.75;4.90;;;;;;;25.99;51.70;99407.63;5050343;28;20027;-43
2023/08/27 00:35:54;;;;;;;8.13;4.88;;;;;;;25.81;52.00;99410.25;5049764;28;20159;-42
2023/08/27 00:38:20;;;;;;;7.55;4.90;;;;;;;25.66;52.69;99413.38;5050581;28;20149;-45
2023/08/27 00:40:45;;;;;;;11.68;4.97;;;;;;;25.81;52.59;99412.19;5050286;28;20032;-43
2023/08/27 00:43:10;;;;;;;7.47;5.00;;;;;;;25.75;52.85;99411.50;5049340;28;20048;-41
2023/08/27 00:45:36;;;;;;;7.43;5.13;;;;;;;25.98;52.01;99406.03;5050479;28;20485;-44
2023/08/27 00:48:02;;;;;;;5.22;4.50;;;;;;;26.21;51.60;99412.22;5050391;28;20016;-45
2023/08/27 00:50:27;;;;;;;7.13;4.60;;;;;;;26.04;52.09;99404.78;5050168;28;20028;-43
2023/08/27 00:52:53;;;;;;;6.57;5.03;;;;;;;25.83;52.89;99404.50;5050167;28;20098;-45
2023/08/27 00:55:19;;;;;;;6.63;4.63;;;;;;;25.94;52.61;99398.47;5050353;28;20042;-43
2023/08/27 00:57:45;;;;;;;7.28;4.70;;;;;;;25.83;52.95;99394.38;5050198;28;20017;-42
2023/08/27 01:00:11;;;;;;;6.60;4.95;;;;;;;25.94;52.58;99394.94;5050181;28;20060;-42
2023/08/27 01:02:38;;;;;;;6.50;4.53;;;;;;;26.11;52.07;99392.28;5050139;28;20028;-42
2023/08/27 01:05:04;;;;;;;6.15;4.53;;;;;;;26.15;52.04;99387.00;5050053;28;20020;-42
2023/08/27 01:07:36;;;;;;;7.13;4.75;;;;;;;26.13;52.46;99386.53;5050185;28;20108;-47
2023/08/27 01:10:15;;;;;;;7.63;4.97;;;;;;;25.88;53.02;99380.63;5050258;28;20017;-45
2023/08/27 01:13:02;;;;;;;8.82;4.47;;;;;;;25.86;53.48;99379.34;5050192;28;20373;-43
2023/08/27 01:15:28;;;;;;;7.47;4.65;;;;;;;25.57;54.21;99377.94;5050058;28;20028;-43
2023/08/27 01:17:55;;;;;;;5.78;4.55;;;;;;;25.52;54.49;99383.50;5050408;28;20104;-46
2023/08/27 01:20:22;;;;;;;7.72;4.60;;;;;;;25.59;54.54;99380.31;5050240;28;20369;-44
2023/08/27 01:22:47;;;;;;;7.15;4.30;;;;;;;25.52;54.76;99381.56;5049793;28;20029;-43
2023/08/27 01:25:18;;;;;;;6.50;4.97;;;;;;;26.10;53.32;99392.59;5049942;28;20039;-42
2023/08/27 01:27:50;;;;;;;5.82;4.50;;;;;;;25.99;53.42;99383.09;5050126;28;20029;-43
2023/08/27 01:30:33;;;;;;;6.65;4.72;;;;;;;25.82;54.21;99378.38;5050125;28;20439;-46
2023/08/27 01:33:05;;;;;;;7.10;5.10;;;;;;;25.52;54.92;99378.06;5049882;28;20025;-43
2023/08/27 01:35:32;;;;;;;8.82;4.95;;;;;;;25.54;54.70;99384.78;5050063;28;20035;-44
2023/08/27 01:37:58;;;;;;;8.75;5.18;;;;;;;25.55;54.47;99377.41;5049871;28;20032;-43
2023/08/27 01:40:25;;;;;;;8.10;4.93;;;;;;;25.45;54.19;99373.03;5049381;28;20061;-45
2023/08/27 01:42:50;;;;;;;7.10;5.07;;;;;;;25.43;53.89;99377.97;5049788;28;20111;-44
2023/08/27 01:45:17;;;;;;;7.40;4.88;;;;;;;25.55;53.01;99380.97;5050186;28;20024;-42
2023/08/27 01:47:43;;;;;;;9.57;5.07;;;;;;;25.25;53.65;99382.53;5053785;28;20480;-45
2023/08/27 01:50:09;;;;;;;6.55;4.97;;;;;;;25.43;53.22;99379.91;5054279;28;20099;-43
2023/08/27 01:52:35;;;;;;;9.38;4.97;;;;;;;25.25;53.74;99377.09;5054407;28;20025;-43
2023/08/27 01:55:01;;;;;;;7.72;4.95;;;;;;;25.36;53.23;99385.81;5053984;28;20029;-43
2023/08/27 01:57:27;;;;;;;8.25;5.35;;;;;;;25.35;53.43;99378.75;5054004;28;20121;-44
2023/08/27 01:59:52;;;;;;;6.35;5.07;;;;;;;25.35;54.02;99376.03;5054082;28;20029;-43
2023/08/27 02:02:18;;;;;;;8.48;5.20;;;;;;;25.25;54.17;99374.38;5054394;28;20025;-44
2023/08/27 02:04:43;;;;;;;8.40;5.20;;;;;;;25.18;54.16;99371.22;5054482;28;20029;-44
2023/08/27 02:07:09;;;;;;;9.15;5.47;;;;;;;25.28;53.44;99371.00;5054198;28;20480;-43
2023/08/27 02:09:34;;;;;;;8.25;5.15;;;;;;;25.32;53.04;99366.56;5054090;28;20385;-46
2023/08/27 02:12:00;;;;;;;7.57;5.43;;;;;;;25.22;52.75;99366.78;5054077;28;20461;-42
2023/08/27 02:14:25;;;;;;;7.40;5.28;;;;;;;25.29;52.87;99366.38;5053775;28;20029;-44
2023/08/27 02:16:50;;;;;;;7.47;5.20;;;;;;;25.34;53.05;99369.78;5053888;28;20029;-43
2023/08/27 02:19:16;;;;;;;8.88;5.35;;;;;;;25.13;54.02;99368.63;5053941;28;20468;-45
2023/08/27 02:21:41;;;;;;;9.07;5.45;;;;;;;25.23;53.80;99364.91;5053644;28;20025;-44
2023/08/27 02:24:07;;;;;;;8.18;5.43;;;;;;;25.47;53.23;99361.81;5053580;28;20055;-43
2023/08/27 02:26:32;;;;;;;12.32;5.22;;;;;;;25.21;54.04;99354.28;5053463;28;20079;-44
2023/08/27 02:28:58;;;;;;;6.97;5.25;;;;;;;25.14;54.51;99362.06;5053601;28;20028;-43
2023/08/27 02:31:23;;;;;;;9.70;5.28;;;;;;;25.11;54.83;99359.97;5053676;28;20103;-44
2023/08/27 02:33:48;;;;;;;7.25;5.10;;;;;;;25.39;53.93;99363.38;5053475;28;20112;-43
2023/08/27 02:36:14;;;;;;;7.93;4.93;;;;;;;25.41;53.93;99363.09;5053853;28;20039;-43
2023/08/27 02:38:39;;;;;;;7.70;5.20;;;;;;;25.27;54.12;99358.50;5053175;28;20044;-44
2023/08/27 02:41:05;;;;;;;9.32;5.40;;;;;;;25.14;54.72;99367.53;5053206;28;20554;-41
2023/08/27 02:43:30;;;;;;;8.73;5.32;;;;;;;25.09;54.98;99378.53;5053512;28;20503;-42
2023/08/27 02:45:55;;;;;;;9.98;5.20;;;;;;;25.18;54.43;99379.41;5053366;28;20131;-44
2023/08/27 02:48:21;;;;;;;10.65;5.65;;;;;;;25.20;54.67;99376.38;5053362;28;20108;-43
2023/08/27 02:50:47;;;;;;;7.55;5.20;;;;;;;25.13;55.12;99377.63;5053338;28;20043;-44
2023/08/27 02:53:12;;;;;;;8.27;5.65;;;;;;;25.14;54.89;99372.97;5053005;28;20036;-44
2023/08/27 02:55:38;;;;;;;11.73;5.57;;;;;;;25.05;54.69;99372.88;5052959;28;20029;-46
2023/08/27 02:58:03;;;;;;;7.72;5.25;;;;;;;24.92;55.37;99376.47;5052317;28;20025;-44
2023/08/27 03:00:29;;;;;;;7.35;5.15;;;;;;;25.01;55.12;99374.63;5052696;28;20033;-41
2023/08/27 03:02:54;;;;;;;8.15;5.40;;;;;;;25.13;54.59;99366.72;5052924;28;20037;-42
2023/08/27 03:05:20;;;;;;;9.65;5.47;;;;;;;25.04;54.90;99373.22;5052743;28;20155;-42
2023/08/27 03:07:45;;;;;;;7.57;5.50;;;;;;;24.94;55.40;99383.22;5052817;28;20025;-41
2023/08/27 03:10:13;;;;;;;9.73;5.50;;;;;;;24.92;55.70;99381.91;5053116;28;20032;-43
2023/08/27 03:12:38;;;;;;;10.25;5.70;;;;;;;25.08;55.10;99377.72;5052786;28;20540;-42
2023/08/27 03:15:04;;;;;;;7.22;5.03;;;;;;;25.13;55.03;99376.78;5052794;28;20082;-43
2023/08/27 03:17:29;;;;;;;7.78;5.80;;;;;;;25.18;55.31;99365.78;5052489;28;20021;-42
2023/08/27 03:19:55;;;;;;;6.47;5.40;;;;;;;25.41;54.84;99360.34;5052461;28;20036;-43
2023/08/27 03:22:20;;;;;;;7.95;5.47;;;;;;;25.53;54.16;99366.03;5052504;28;20481;-44
2023/08/27 03:24:46;;;;;;;7.03;5.13;;;;;;;25.32;55.11;99366.56;5052491;28;20029;-43
2023/08/27 03:27:12;;;;;;;7.80;5.30;;;;;;;24.93;56.28;99370.72;5052299;28;20025;-44
2023/08/27 03:29:38;;;;;;;10.20;5.40;;;;;;;24.85;56.93;99381.56;5052479;28;20029;-42
2023/08/27 03:32:04;;;;;;;10.13;5.45;;;;;;;24.90;57.06;99373.25;5052653;28;20066;-43
2023/08/27 03:34:29;;;;;;;9.05;5.53;;;;;;;24.92;56.91;99374.56;5052521;28;20017;-43
2023/08/27 03:36:55;;;;;;;9.75;5.55;;;;;;;24.87;57.30;99371.97;5052472;28;20021;-43
2023/08/27 03:39:20;;;;;;;11.05;5.45;;;;;;;24.94;57.33;99368.78;5052125;28;20389;-43
2023/08/27 03:41:45;;;;;;;13.48;5.35;;;;;;;24.97;57.31;99362.75;5052242;28;20025;-43
2023/08/27 03:44:11;;;;;;;8.45;5.68;;;;;;;24.92;57.80;99373.75;5051635;28;20429;-41
2023/08/27 03:46:39;;;;;;;8.50;5.45;;;;;;;24.74;58.40;99372.81;5049980;28;20067;-45
2023/08/27 03:49:04;;;;;;;9.90;5.50;;;;;;;24.82;58.95;99371.28;5051755;28;20123;-43
2023/08/27 03:51:29;;;;;;;8.35;5.32;;;;;;;24.95;58.84;99362.25;5051991;28;20103;-43
2023/08/27 03:53:56;;;;;;;8.65;5.82;;;;;;;24.96;58.81;99361.16;5051936;28;20515;-42
2023/08/27 03:56:22;;;;;;;10.27;5.82;;;;;;;25.03;59.23;99366.16;5052055;28;20041;-42
2023/08/27 03:58:48;;;;;;;7.43;4.88;;;;;;;25.14;58.15;99359.34;5052164;28;20028;-41
2023/08/27 04:01:13;;;;;;;9.82;5.75;;;;;;;25.24;56.67;99359.13;5052184;28;20013;-42
2023/08/27 04:03:39;;;;;;;8.23;6.03;;;;;;;25.05;57.04;99351.13;5052007;28;20370;-43
2023/08/27 04:06:06;;;;;;;10.50;5.80;;;;;;;25.07;57.27;99367.94;5051876;28;20025;-43
2023/08/27 04:08:31;;;;;;;8.73;5.57;;;;;;;25.13;56.55;99374.91;5053543;28;20078;-44
2023/08/27 04:10:57;;;;;;;8.07;5.75;;;;;;;25.28;55.53;99373.72;5068763;28;20020;-45
2023/08/27 04:13:22;;;;;;;8.18;5.88;;;;;;;25.45;53.98;99385.84;5057261;28;20113;-42
2023/08/27 04:16:06;;;;;;;9.73;6.03;;;;;;;25.60;53.62;99374.56;5062754;28;20020;-45
2023/08/27 04:18:35;;;;;;;8.50;6.03;;;;;;;25.71;52.75;99381.34;5064744;28;20404;-46
2023/08/27 04:21:01;;;;;;;8.80;5.68;;;;;;;25.73;52.53;99384.56;5047366;28;20032;-42
2023/08/27 04:23:27;;;;;;;10.05;5.65;;;;;;;25.96;52.13;99381.81;5053244;28;20052;-44
2023/08/27 04:25:53;;;;;;;8.65;5.75;;;;;;;26.04;52.30;99382.97;5052298;28;20056;-44
2023/08/27 04:28:19;;;;;;;6.43;5.40;;;;;;;26.08;52.20;99383.94;5052300;28;20100;-43
2023/08/27 04:30:50;;;;;;;7.80;5.93;;;;;;;26.40;51.57;99385.47;5052234;28;20052;-43
2023/08/27 04:33:16;;;;;;;7.22;5.80;;;;;;;26.59;50.66;99379.75;5047334;28;20023;-42
2023/08/27 04:35:44;;;;;;;9.02;6.25;;;;;;;26.68;50.63;99386.03;5052487;28;20105;-42
2023/08/27 04:38:10;;;;;;;9.73;5.53;;;;;;;26.89;50.08;99385.41;5052270;28;20021;-46
2023/08/27 04:40:36;;;;;;;8.30;5.63;;;;;;;27.02;49.83;99394.56;5051647;28;20045;-39
2023/08/27 04:43:02;;;;;;;9.88;5.60;;;;;;;27.22;49.15;99396.63;5052314;28;20027;-43
2023/08/27 04:45:27;;;;;;;8.27;5.65;;;;;;;27.57;48.11;99393.88;5067809;28;20390;-42
2023/08/27 04:47:53;;;;;;;10.93;5.50;;;;;;;27.90;47.13;99395.25;5057943;28;20469;-44
2023/08/27 04:50:18;;;;;;;10.95;6.00;;;;;;;28.07;46.56;99390.50;5060727;28;20017;-42
2023/08/27 04:52:44;;;;;;;7.88;5.60;;;;;;;28.03;46.61;99395.03;5050803;28;20487;-43
2023/08/27 04:55:09;;;;;;;10.40;6.10;;;;;;;28.04;46.45;99376.69;5055444;28;20477;-42
2023/08/27 04:57:36;;;;;;;8.85;6.22;;;;;;;28.32;45.85;99389.91;5049830;28;20025;-42
2023/08/27 05:00:04;;;;;;;8.05;6.10;;;;;;;28.73;44.87;99396.56;5047955;28;20473;-45
2023/08/27 05:02:29;;;;;;;7.65;5.57;;;;;;;29.02;44.48;99391.03;5058625;28;20024;-44
2023/08/27 05:04:54;;;;;;;8.02;5.97;;;;;;;29.05;43.92;99384.06;5070526;28;20047;-43
2023/08/27 05:07:23;;;;;;;9.32;6.45;;;;;;;29.21;43.74;99389.78;5070192;28;20021;-42
2023/08/27 05:09:48;;;;;;;8.32;6.07;;;;;;;29.26;44.02;99386.00;5066388;28;20032;-43
2023/08/27 05:12:14;;;;;;;10.07;7.75;;;;;;;29.62;43.11;99383.38;5036086;28;20017;-43
2023/08/27 05:14:40;;;;;;;13.15;7.72;;;;;;;29.67;42.84;99389.78;5049547;28;20021;-42
2023/08/27 05:17:05;;;;;;;11.35;6.80;;;;;;;29.76;42.68;99393.25;5049655;28;20400;-48
2023/08/27 05:19:31;;;;;;;7.30;5.63;;;;;;;29.85;42.95;99391.19;5049698;28;20491;-42
2023/08/27 05:21:56;;;;;;;7.78;5.95;;;;;;;29.90;42.51;99390.19;5051481;28;20017;-42
2023/08/27 05:24:21;;;;;;;9.02;5.82;;;;;;;29.87;42.89;99391.66;5046344;28;20022;-43
2023/08/27 05:26:47;;;;;;;10.18;6.05;;;;;;;30.07;42.04;99392.72;5032669;28;20045;-43
2023/08/27 05:29:12;;;;;;;8.55;5.97;;;;;;;30.09;42.43;99393.16;5034524;28;20033;-41
2023/08/27 05:31:38;;;;;;;7.95;5.88;;;;;;;30.31;42.02;99394.66;5033563;28;20447;-42
2023/08/27 05:34:03;;;;;;;8.18;5.60;;;;;;;30.60;41.40;99395.56;5033802;28;20099;-43
2023/08/27 05:36:28;;;;;;;7.90;5.63;;;;;;;30.93;40.55;99400.84;5033652;28;20032;-44
2023/08/27 05:38:54;;;;;;;9.50;5.35;;;;;;;31.04;39.81;99392.94;5035518;28;20047;-43
2023/08/27 05:41:19;;;;;;;9.45;5.68;;;;;;;31.20;39.53;99389.44;5054005;28;20043;-43
2023/08/27 05:43:45;;;;;;;9.50;5.53;;;;;;;31.58;39.31;99401.88;5053913;28;20029;-43
2023/08/27 05:46:10;;;;;;;30.30;24.70;;;;;;;31.97;38.67;99405.63;5053809;28;20430;-46
2023/08/27 05:48:37;;;;;;;7.53;6.70;;;;;;;32.59;37.27;99405.91;5053641;28;20092;-42
2023/08/27 05:51:03;;;;;;;7.15;5.35;;;;;;;32.32;37.58;99396.63;5052706;28;20024;-43
2023/08/27 05:53:29;;;;;;;7.63;5.50;;;;;;;32.09;37.81;99385.50;5052648;28;20100;-44
2023/08/27 05:55:54;;;;;;;7.68;5.63;;;;;;;32.16;37.83;99393.91;5053157;28;20029;-43
2023/08/27 05:58:20;;;;;;;7.63;5.50;;;;;;;32.32;37.50;99391.91;5053554;28;20116;-43
2023/08/27 06:00:45;;;;;;;10.15;7.10;;;;;;;32.41;37.07;99388.19;5053759;28;20068;-45
2023/08/27 06:03:11;;;;;;;8.60;5.57;;;;;;;32.86;36.47;99384.06;5053781;28;20025;-42
2023/08/27 06:05:36;;;;;;;7.82;5.82;;;;;;;32.77;36.77;99386.22;5053764;28;20495;-43
2023/08/27 06:08:03;;;;;;;6.03;5.20;;;;;;;33.86;34.94;99385.19;5053681;28;20449;-43
2023/08/27 06:10:30;;;;;;;6.43;5.38;;;;;;;33.17;36.17;99385.91;5053853;28;20514;-43
2023/08/27 06:12:57;;;;;;;6.60;5.20;;;;;;;33.20;36.12;99385.16;5053682;28;20021;-43
2023/08/27 06:15:23;;;;;;;8.35;5.10;;;;;;;33.31;35.83;99388.13;5053441;28;20013;-43
2023/08/27 06:17:49;;;;;;;6.53;5.10;;;;;;;33.46;35.48;99391.94;5053458;28;20023;-42
2023/08/27 06:20:14;;;;;;;7.28;4.88;;;;;;;33.67;35.33;99400.63;5053546;28;20029;-43
2023/08/27 06:22:40;;;;;;;11.20;5.50;;;;;;;33.86;34.80;99408.03;5053258;28;20075;-42
2023/08/27 06:25:07;;;;;;;6.90;5.28;;;;;;;33.85;34.57;99406.47;5053153;28;20491;-44
2023/08/27 06:27:32;;;;;;;7.32;5.03;;;;;;;34.30;34.61;99403.25;5053343;28;20385;-44
2023/08/27 06:29:58;;;;;;;5.82;4.68;;;;;;;34.99;32.86;99394.69;5053180;28;20469;-43
2023/08/27 06:32:23;;;;;;;9.88;6.60;;;;;;;34.91;32.80;99398.56;5053423;28;20078;-42
2023/08/27 06:34:49;;;;;;;9.82;5.55;;;;;;;35.08;32.63;99395.22;5053143;28;20397;-43
2023/08/27 06:37:14;;;;;;;8.18;5.15;;;;;;;34.93;33.04;99399.78;5053064;28;20044;-46
2023/08/27 06:39:40;;;;;;;7.82;5.07;;;;;;;34.97;33.22;99394.28;5052296;28;20049;-44
2023/08/27 06:42:05;;;;;;;9.57;5.30;;;;;;;35.26;32.51;99397.41;5052800;28;20154;-44
2023/08/27 06:44:31;;;;;;;8.98;5.20;;;;;;;36.17;31.22;99401.44;5038328;28;20033;-44
2023/08/27 06:46:56;;;;;;;8.18;5.10;;;;;;;36.03;31.24;99401.31;5032801;28;20037;-44
2023/08/27 06:49:21;;;;;;;18.20;13.05;;;;;;;35.71;31.74;99401.03;5032930;28;20100;-42
2023/08/27 06:51:47;;;;;;;11.52;8.10;;;;;;;35.11;32.51;99393.66;5032785;28;20013;-45
2023/08/27 06:54:13;;;;;;;10.23;7.50;;;;;;;35.23;32.21;99398.97;5032628;28;20212;-42
2023/08/27 06:56:39;;;;;;;8.07;4.90;;;;;;;35.48;31.95;99401.19;5032407;28;20025;-43
2023/08/27 06:59:04;;;;;;;6.78;5.13;;;;;;;36.12;31.30;99396.25;5032620;28;20036;-42
2023/08/27 07:01:30;;;;;;;6.65;5.15;;;;;;;36.62;30.63;99393.00;5031801;28;20040;-45
2023/08/27 07:03:58;;;;;;;7.32;5.20;;;;;;;36.45;30.66;99391.72;5031557;28;20087;-42
2023/08/27 07:06:23;;;;;;;7.13;4.83;;;;;;;36.16;31.54;99390.72;5031942;28;20409;-43
2023/08/27 07:08:49;;;;;;;6.13;5.05;;;;;;;35.99;31.33;99390.22;5031934;28;20060;-47
2023/08/27 07:11:16;;;;;;;7.45;4.95;;;;;;;36.16;31.10;99379.66;5032052;28;20216;-43
2023/08/27 07:13:42;;;;;;;7.13;5.20;;;;;;;36.09;31.41;99382.38;5031913;28;20025;-43
2023/08/27 07:16:07;;;;;;;8.18;5.10;;;;;;;36.32;31.04;99351.69;5048068;28;20093;-43
2023/08/27 07:18:32;;;;;;;7.28;4.97;;;;;;;37.37;29.26;99362.00;5052240;28;20376;-42
2023/08/27 07:20:58;;;;;;;7.57;4.95;;;;;;;37.21;29.61;99356.06;5052110;28;20035;-44
2023/08/27 07:23:23;;;;;;;7.22;4.90;;;;;;;36.60;30.31;99362.13;5052118;28;20083;-42
2023/08/27 07:25:49;;;;;;;6.68;5.03;;;;;;;36.81;30.15;99363.44;5052009;28;20341;-42
2023/08/27 07:28:14;;;;;;;6.63;5.10;;;;;;;36.71;30.10;99364.94;5051933;28;20033;-44
2023/08/27 07:30:40;;;;;;;6.57;4.97;;;;;;;36.85;29.57;99364.22;5051514;28;20025;-46
2023/08/27 07:33:06;;;;;;;6.00;4.60;;;;;;;36.89;30.00;99362.25;5051822;28;20051;-45
2023/08/27 07:35:32;;;;;;;6.82;5.15;;;;;;;37.68;28.79;99362.44;5051597;28;20064;-44
2023/08/27 07:37:58;;;;;;;7.85;4.85;;;;;;;37.14;29.29;99357.59;5051471;28;20051;-44
2023/08/27 07:40:23;;;;;;;7.43;4.88;;;;;;;36.80;29.87;99359.84;5051349;28;20099;-43
2023/08/27 07:42:49;;;;;;;6.20;4.80;;;;;;;36.33;30.40;99353.28;5051596;28;20102;-42
2023/08/27 07:45:15;;;;;;;8.32;4.82;;;;;;;36.38;30.77;99362.00;5051638;28;20028;-43
2023/08/27 07:47:40;;;;;;;5.80;4.90;;;;;;;36.41;30.28;99346.59;5051437;28;20512;-45
2023/08/27 07:50:06;;;;;;;7.10;4.90;;;;;;;36.67;30.26;99350.28;5051845;28;20031;-43
2023/08/27 07:52:32;;;;;;;7.07;5.07;;;;;;;37.10;29.53;99345.69;5051522;28;20027;-44
2023/08/27 07:54:57;;;;;;;7.53;4.95;;;;;;;37.82;28.46;99342.25;5051172;28;20029;-42
2023/08/27 07:57:23;;;;;;;8.95;4.80;;;;;;;37.27;29.33;99338.59;5051159;28;20027;-41
2023/08/27 07:59:49;;;;;;;6.60;5.25;;;;;;;37.11;29.59;99340.91;5051206;28;20106;-43
2023/08/27 08:02:14;;;;;;;5.72;4.85;;;;;;;37.15;29.69;99339.78;5051170;28;20105;-43
2023/08/27 08:04:40;;;;;;;6.43;5.05;;;;;;;37.61;28.99;99341.03;5051041;28;20108;-43
2023/08/27 08:07:05;;;;;;;5.32;4.50;;;;;;;37.64;28.47;99345.00;5051042;28;20029;-44
2023/08/27 08:09:31;;;;;;;5.75;4.25;;;;;;;38.25;27.55;99345.75;5050950;28;20029;-44
2023/08/27 08:11:57;;;;;;;6.47;4.60;;;;;;;39.13;26.99;99341.44;5051124;28;20052;-43
2023/08/27 08:14:22;;;;;;;6.45;4.70;;;;;;;38.29;27.45;99343.75;5051046;28;20090;-43
2023/08/27 08:16:52;;;;;;;7.00;4.80;;;;;;;37.64;28.06;99339.44;5051081;28;20443;-43
2023/08/27 08:19:17;;;;;;;7.75;4.60;;;;;;;37.41;28.98;99337.03;5050919;28;20025;-43
2023/08/27 08:21:43;;;;;;;8.98;5.13;;;;;;;37.61;28.78;99329.94;5050751;28;20485;-45
2023/08/27 08:24:08;;;;;;;17.38;14.90;;;;;;;37.41;28.49;99332.28;5050825;28;20029;-44
2023/08/27 08:26:34;;;;;;;12.93;8.00;;;;;;;37.74;28.18;99333.13;5050520;28;20032;-46
2023/08/27 08:28:59;;;;;;;7.78;5.10;;;;;;;38.73;26.41;99330.53;5049912;28;20135;-45
2023/08/27 08:31:25;;;;;;;7.00;5.90;;;;;;;38.03;26.63;99331.09;5050419;28;20121;-43
2023/08/27 08:33:50;;;;;;;7.68;6.20;;;;;;;37.67;27.18;99339.47;5050399;28;20104;-44
2023/08/27 08:36:15;;;;;;;8.63;6.07;;;;;;;37.78;26.79;99327.56;5050540;28;20044;-43
2023/08/27 08:38:41;;;;;;;9.10;4.80;;;;;;;37.31;27.01;99328.31;5050402;28;20476;-42
2023/08/27 08:41:08;;;;;;;7.90;4.47;;;;;;;37.30;27.21;99320.38;5050338;28;20613;-43
2023/08/27 08:43:45;;;;;;;6.68;4.50;;;;;;;37.42;27.13;99322.78;5050486;28;20025;-42
2023/08/27 08:46:13;;;;;;;6.43;4.60;;;;;;;38.25;26.62;99326.31;5050358;28;20052;-42
2023/08/27 08:48:41;;;;;;;7.00;4.50;;;;;;;38.38;25.74;99314.75;5049489;28;20032;-45
2023/08/27 08:51:11;;;;;;;7.68;4.70;;;;;;;37.41;26.87;99318.41;5049701;28;20025;-43
2023/08/27 08:53:40;;;;;;;6.75;4.43;;;;;;;37.07;26.61;99307.66;5049239;28;20472;-42
2023/08/27 08:56:15;;;;;;;5.07;4.20;;;;;;;37.02;26.97;99305.28;5049519;28;20077;-46
2023/08/27 08:58:44;;;;;;;7.20;4.60;;;;;;;37.11;27.30;99310.41;5050401;28;20054;-43
2023/08/27 09:01:10;;;;;;;5.70;4.10;;;;;;;37.39;26.84;99300.56;5050352;28;20029;-44
2023/08/27 09:03:37;;;;;;;5.47;4.25;;;;;;;37.72;26.40;99297.44;5050374;28;20075;-43
2023/08/27 09:06:03;;;;;;;6.38;4.70;;;;;;;38.48;25.84;99286.94;5049441;28;20043;-44
2023/08/27 09:08:31;;;;;;;5.43;4.53;;;;;;;38.66;25.34;99284.09;5050004;28;20029;-43
2023/08/27 09:10:56;;;;;;;6.40;4.60;;;;;;;37.92;25.85;99283.13;5050337;28;20485;-43
2023/08/27 09:13:22;;;;;;;5.63;4.60;;;;;;;36.89;26.84;99279.88;5051139;28;20035;-45
2023/08/27 09:15:48;;;;;;;6.80;4.70;;;;;;;36.18;27.79;99286.72;5050720;28;20090;-46
2023/08/27 09:18:15;;;;;;;7.00;4.15;;;;;;;36.10;28.25;99279.56;5051014;28;20036;-43
2023/08/27 09:20:41;;;;;;;7.00;4.55;;;;;;;36.60;27.16;99282.56;5050625;28;20036;-43
2023/08/27 09:23:09;;;;;;;7.90;4.45;;;;;;;37.24;26.86;99272.03;5050999;28;20036;-46
2023/08/27 09:25:36;;;;;;;7.68;4.22;;;;;;;37.82;25.81;99268.06;5051377;28;20104;-43
2023/08/27 09:28:01;;;;;;;4.88;3.83;;;;;;;37.60;26.08;99269.25;5050814;28;20087;-43
2023/08/27 09:30:27;;;;;;;7.53;6.47;;;;;;;37.83;25.99;99261.31;5050898;28;20037;-44
2023/08/27 09:32:52;;;;;;;9.38;6.30;;;;;;;37.44;26.21;99253.03;5050542;28;20105;-44
2023/08/27 09:35:18;;;;;;;4.43;3.80;;;;;;;37.95;25.12;99254.56;5050655;28;20021;-43
2023/08/27 09:37:43;;;;;;;4.50;4.10;;;;;;;38.43;24.97;99251.22;5050524;28;20032;-42
2023/08/27 09:40:10;;;;;;;6.00;4.10;;;;;;;38.87;24.09;99251.81;5050600;28;20461;-46
2023/08/27 09:42:37;;;;;;;4.57;3.85;;;;;;;39.27;24.00;99244.75;5050616;28;20033;-45
2023/08/27 09:45:04;;;;;;;6.03;4.05;;;;;;;39.52;23.54;99243.78;5051235;28;20107;-45
2023/08/27 09:47:31;;;;;;;8.60;4.50;;;;;;;38.85;24.75;99238.31;5050944;28;20036;-46
2023/08/27 09:49:56;;;;;;;5.38;4.43;;;;;;;38.40;25.16;99238.13;5050494;28;20489;-45
2023/08/27 09:52:24;;;;;;;7.07;4.32;;;;;;;38.63;24.72;99236.84;5050544;28;20100;-44
2023/08/27 09:54:51;;;;;;;6.65;3.95;;;;;;;37.99;24.77;99237.91;5050585;28;20037;-44
2023/08/27 09:57:18;;;;;;;9.70;4.18;;;;;;;37.86;25.54;99234.75;5050644;28;20044;-44
2023/08/27 09:59:44;;;;;;;7.03;4.63;;;;;;;37.83;25.30;99236.31;5050589;28;20021;-44
2023/08/27 10:02:13;;;;;;;7.93;4.80;;;;;;;37.47;25.65;99228.06;5050506;28;20036;-43
2023/08/27 10:04:49;;;;;;;5.55;4.28;;;;;;;37.60;25.75;99225.66;5050502;28;20398;-43
2023/08/27 10:07:16;;;;;;;7.53;4.53;;;;;;;36.65;26.57;99225.97;5052207;28;20028;-45
2023/08/27 10:09:42;;;;;;;5.82;4.28;;;;;;;36.05;27.02;99219.00;5054194;28;20029;-43
2023/08/27 10:12:11;;;;;;;5.85;3.92;;;;;;;35.77;27.02;99220.44;5054305;28;20025;-46
2023/08/27 10:14:40;;;;;;;6.97;4.20;;;;;;;36.27;26.48;99211.63;5054282;28;20025;-46
2023/08/27 10:17:06;;;;;;;5.30;4.15;;;;;;;36.24;26.55;99214.38;5053898;28;20053;-43
2023/08/27 10:19:34;;;;;;;6.78;3.97;;;;;;;36.56;25.63;99212.50;5054173;28;20488;-44
2023/08/27 10:22:00;;;;;;;5.25;3.97;;;;;;;37.12;25.28;99212.97;5054101;28;20029;-47
2023/08/27 10:24:26;;;;;;;8.25;6.53;;;;;;;37.35;24.93;99212.59;5054278;28;20039;-44
2023/08/27 10:26:53;;;;;;;10.00;6.30;;;;;;;37.26;24.87;99212.22;5053877;28;20024;-46
2023/08/27 10:29:22;;;;;;;6.00;3.90;;;;;;;37.13;25.17;99206.28;5054016;28;20029;-46
2023/08/27 10:31:47;;;;;;;5.70;4.07;;;;;;;37.47;24.88;99197.53;5053755;28;20025;-45
2023/08/27 10:34:13;;;;;;;6.85;3.70;;;;;;;37.66;24.88;99201.09;5054012;28;20389;-45
2023/08/27 10:36:41;;;;;;;4.72;3.80;;;;;;;37.27;24.25;99193.59;5053947;28;20090;-46
2023/08/27 10:39:07;;;;;;;;;;;;;;;37.48;25.14;99190.78;5053439;28;20091;-45
2023/08/27 10:41:35;;;;;;;5.03;3.78;;;;;;;37.64;23.72;99201.50;5053854;28;20395;-45
2023/08/27 10:44:01;;;;;;;5.65;3.72;;;;;;;38.31;23.64;99199.69;5053642;28;20124;-45
2023/08/27 10:46:26;;;;;;;6.72;5.45;;;;;;;37.10;25.06;99195.94;5053723;28;20039;-45
2023/08/27 10:48:53;;;;;;;5.88;3.90;;;;;;;36.39;26.06;99191.09;5053373;28;20020;-44
2023/08/27 10:51:21;;;;;;;6.60;3.67;;;;;;;36.28;26.20;99198.56;5053554;28;20088;-46
2023/08/27 10:53:49;;;;;;;8.65;3.88;;;;;;;35.92;26.54;99207.47;5053392;28;20059;-43
2023/08/27 10:56:26;;;;;;;7.15;5.25;;;;;;;36.36;25.33;99189.88;5053466;28;20095;-43
2023/08/27 10:58:52;;;;;;;5.88;3.92;;;;;;;36.60;25.31;99176.47;5053173;28;20477;-44
2023/08/27 11:01:20;;;;;;;8.52;4.05;;;;;;;37.24;25.12;99174.97;5053138;28;20060;-45
2023/08/27 11:04:03;;;;;;;4.93;4.00;;;;;;;37.73;24.68;99174.09;5053738;28;20032;-45
2023/08/27 11:06:45;;;;;;;4.80;3.63;;;;;;;38.11;23.62;99166.06;5052911;28;20690;-43
2023/08/27 11:09:24;;;;;;;5.50;4.43;;;;;;;37.92;24.20;99172.84;5052854;28;20420;-46
2023/08/27 11:11:54;;;;;;;6.65;4.13;;;;;;;37.49;25.57;99166.59;5053217;28;20052;-46
2023/08/27 11:14:22;;;;;;;5.80;4.10;;;;;;;37.27;25.33;99163.09;5053278;28;20556;-48
2023/08/27 11:17:01;;;;;;;4.25;3.80;;;;;;;37.55;25.18;99156.69;5053133;28;20032;-45
2023/08/27 11:19:36;;;;;;;6.15;4.30;;;;;;;37.34;24.93;99158.31;5051995;28;20114;-46
2023/08/27 11:22:14;;;;;;;4.80;4.00;;;;;;;37.14;25.22;99157.16;5052795;28;20531;-46
2023/08/27 11:24:43;;;;;;;7.75;4.00;;;;;;;37.25;25.22;99155.16;5053099;28;20165;-44
2023/08/27 11:27:09;;;;;;;6.85;4.20;;;;;;;36.86;25.23;99167.06;5053086;28;20028;-43
2023/08/27 11:29:39;;;;;;;4.65;3.92;;;;;;;37.04;25.55;99144.84;5053029;28;20096;-45